sensor_id;sensor_type;location;lat;lon;timestamp;temperature;humidity
14357;DHT22;7262;48.764;9.166;2023-02-28T00:00:08;-0.60;99.90
14357;DHT22;7262;48.764;9.166;2023-02-28T00:02:37;-0.70;99.90
14357;DHT22;7262;48.764;9.166;2023-02-28T00:05:05;-0.70;99.90
14357;DHT22;7262;48.764;9.166;2023-02-28T00:07:32;-0.60;99.90
14357;DHT22;7262;48.764;9.166;2023-02-28T00:10:01;-0.70;99.90
14357;DHT22;7262;48.764;9.166;2023-02-28T00:12:28;-0.60;99.90
14357;DHT22;7262;48.764;9.166;2023-02-28T00:14:55;-0.60;99.90
14357;DHT22;7262;48.764;9.166;2023-02-28T00:17:21;-0.70;99.90
14357;DHT22;7262;48.764;9.166;2023-02-28T00:19:49;-0.60;99.90
14357;DHT22;7262;48.764;9.166;2023-02-28T00:22:16;-0.60;99.90
14357;DHT22;7262;48.764;9.166;2023-02-28T00:24:43;-0.60;99.90
14357;DHT22;7262;48.764;9.166;2023-02-28T00:27:11;-0.60;99.90
14357;DHT22;7262;48.764;9.166;2023-02-28T00:29:38;-0.70;99.90
14357;DHT22;7262;48.764;9.166;2023-02-28T00:32:05;-0.70;99.90
14357;DHT22;7262;48.764;9.166;2023-02-28T00:34:32;-0.70;99.90
14357;DHT22;7262;48.764;9.166;2023-02-28T00:37:03;-0.70;99.90
14357;DHT22;7262;48.764;9.166;2023-02-28T00:39:30;-0.70;99.90
14357;DHT22;7262;48.764;9.166;2023-02-28T00:41:56;-0.80;99.90
14357;DHT22;7262;48.764;9.166;2023-02-28T00:44:24;-0.80;99.90
14357;DHT22;7262;48.764;9.166;2023-02-28T00:46:51;-0.70;99.90
14357;DHT22;7262;48.764;9.166;2023-02-28T00:49:19;-0.70;99.90
14357;DHT22;7262;48.764;9.166;2023-02-28T00:51:46;-0.70;99.90
14357;DHT22;7262;48.764;9.166;2023-02-28T00:54:13;-0.70;99.90
14357;DHT22;7262;48.764;9.166;2023-02-28T00:56:40;-0.80;99.90
14357;DHT22;7262;48.764;9.166;2023-02-28T00:59:06;-0.80;99.90
14357;DHT22;7262;48.764;9.166;2023-02-28T01:01:35;-0.80;99.90
14357;DHT22;7262;48.764;9.166;2023-02-28T01:04:02;-0.80;99.90
14357;DHT22;7262;48.764;9.166;2023-02-28T01:06:30;-0.80;99.90
14357;DHT22;7262;48.764;9.166;2023-02-28T01:08:57;-0.90;99.90
14357;DHT22;7262;48.764;9.166;2023-02-28T01:11:24;-0.90;99.90
14357;DHT22;7262;48.764;9.166;2023-02-28T01:13:51;-0.80;99.90
14357;DHT22;7262;48.764;9.166;2023-02-28T01:16:18;-0.90;99.90
14357;DHT22;7262;48.764;9.166;2023-02-28T01:18:46;-0.90;99.90
14357;DHT22;7262;48.764;9.166;2023-02-28T01:21:14;-0.90;99.90
14357;DHT22;7262;48.764;9.166;2023-02-28T01:23:41;-0.80;99.90
14357;DHT22;7262;48.764;9.166;2023-02-28T01:26:09;-0.90;99.90
14357;DHT22;7262;48.764;9.166;2023-02-28T01:28:36;-0.90;99.90
14357;DHT22;7262;48.764;9.166;2023-02-28T01:31:04;-0.90;99.90
14357;DHT22;7262;48.764;9.166;2023-02-28T01:33:32;-0.90;99.90
14357;DHT22;7262;48.764;9.166;2023-02-28T01:36:01;-0.90;99.90
14357;DHT22;7262;48.764;9.166;2023-02-28T01:38:28;-0.90;99.90
14357;DHT22;7262;48.764;9.166;2023-02-28T01:40:56;-0.90;99.90
14357;DHT22;7262;48.764;9.166;2023-02-28T01:43:25;-0.90;99.90
14357;DHT22;7262;48.764;9.166;2023-02-28T01:45:54;-0.90;99.90
14357;DHT22;7262;48.764;9.166;2023-02-28T01:48:21;-0.90;99.90
14357;DHT22;7262;48.764;9.166;2023-02-28T01:50:49;-0.90;99.90
14357;DHT22;7262;48.764;9.166;2023-02-28T01:53:18;-0.90;99.90
14357;DHT22;7262;48.764;9.166;2023-02-28T01:55:46;-0.90;99.90
14357;DHT22;7262;48.764;9.166;2023-02-28T01:58:14;-0.90;99.90
14357;DHT22;7262;48.764;9.166;2023-02-28T02:00:41;-1.00;99.90
14357;DHT22;7262;48.764;9.166;2023-02-28T02:03:09;-1.00;99.90
14357;DHT22;7262;48.764;9.166;2023-02-28T02:05:37;-1.00;99.90
14357;DHT22;7262;48.764;9.166;2023-02-28T02:08:06;-0.90;99.90
14357;DHT22;7262;48.764;9.166;2023-02-28T02:10:35;-0.90;99.90
14357;DHT22;7262;48.764;9.166;2023-02-28T02:13:08;-0.90;99.90
14357;DHT22;7262;48.764;9.166;2023-02-28T02:15:39;-0.90;99.90
14357;DHT22;7262;48.764;9.166;2023-02-28T02:18:08;-0.90;99.90
14357;DHT22;7262;48.764;9.166;2023-02-28T02:21:01;-0.90;99.90
14357;DHT22;7262;48.764;9.166;2023-02-28T02:26:31;-0.90;99.90
14357;DHT22;7262;48.764;9.166;2023-02-28T02:29:30;-0.90;99.90
14357;DHT22;7262;48.764;9.166;2023-02-28T02:32:28;-0.90;99.90
14357;DHT22;7262;48.764;9.166;2023-02-28T02:35:06;-0.90;99.90
14357;DHT22;7262;48.764;9.166;2023-02-28T02:37:36;-0.90;99.90
14357;DHT22;7262;48.764;9.166;2023-02-28T02:40:07;-0.90;99.90
14357;DHT22;7262;48.764;9.166;2023-02-28T02:42:38;-0.80;99.90
14357;DHT22;7262;48.764;9.166;2023-02-28T02:45:09;-0.80;99.90
14357;DHT22;7262;48.764;9.166;2023-02-28T02:47:36;-0.80;99.90
14357;DHT22;7262;48.764;9.166;2023-02-28T02:50:07;-0.80;99.90
14357;DHT22;7262;48.764;9.166;2023-02-28T02:52:36;-0.80;99.90
14357;DHT22;7262;48.764;9.166;2023-02-28T02:55:05;-0.80;99.90
14357;DHT22;7262;48.764;9.166;2023-02-28T02:57:33;-0.70;99.90
14357;DHT22;7262;48.764;9.166;2023-02-28T03:00:03;-0.80;99.90
14357;DHT22;7262;48.764;9.166;2023-02-28T03:02:30;-0.70;99.90
14357;DHT22;7262;48.764;9.166;2023-02-28T03:04:59;-0.70;99.90
14357;DHT22;7262;48.764;9.166;2023-02-28T03:07:30;-0.70;99.90
14357;DHT22;7262;48.764;9.166;2023-02-28T03:09:57;-0.70;99.90
14357;DHT22;7262;48.764;9.166;2023-02-28T03:12:26;-0.80;99.90
14357;DHT22;7262;48.764;9.166;2023-02-28T03:14:56;-0.80;99.90
14357;DHT22;7262;48.764;9.166;2023-02-28T03:17:37;-0.80;99.90
14357;DHT22;7262;48.764;9.166;2023-02-28T03:20:13;-0.70;99.90
14357;DHT22;7262;48.764;9.166;2023-02-28T03:22:48;-0.80;99.90
14357;DHT22;7262;48.764;9.166;2023-02-28T03:25:19;-0.70;99.90
14357;DHT22;7262;48.764;9.166;2023-02-28T03:27:49;-0.70;99.90
14357;DHT22;7262;48.764;9.166;2023-02-28T03:30:22;-0.80;99.90
14357;DHT22;7262;48.764;9.166;2023-02-28T03:32:51;-0.80;99.90
14357;DHT22;7262;48.764;9.166;2023-02-28T03:35:20;-0.70;99.90
14357;DHT22;7262;48.764;9.166;2023-02-28T03:37:50;-0.60;99.90
14357;DHT22;7262;48.764;9.166;2023-02-28T03:40:19;-0.70;99.90
14357;DHT22;7262;48.764;9.166;2023-02-28T03:42:47;-0.60;99.90
14357;DHT22;7262;48.764;9.166;2023-02-28T03:45:16;-0.60;99.90
14357;DHT22;7262;48.764;9.166;2023-02-28T03:47:45;-0.70;99.90
14357;DHT22;7262;48.764;9.166;2023-02-28T03:50:16;-0.70;99.90
14357;DHT22;7262;48.764;9.166;2023-02-28T03:52:45;-0.70;99.90
14357;DHT22;7262;48.764;9.166;2023-02-28T03:55:15;-0.70;99.90
14357;DHT22;7262;48.764;9.166;2023-02-28T03:57:44;-0.70;99.90
14357;DHT22;7262;48.764;9.166;2023-02-28T04:00:16;-0.60;99.90
14357;DHT22;7262;48.764;9.166;2023-02-28T04:02:45;-0.60;99.90
14357;DHT22;7262;48.764;9.166;2023-02-28T04:05:19;-0.60;99.90
14357;DHT22;7262;48.764;9.166;2023-02-28T04:07:46;-0.60;99.90
14357;DHT22;7262;48.764;9.166;2023-02-28T04:10:22;-0.60;99.90
14357;DHT22;7262;48.764;9.166;2023-02-28T04:12:49;-0.50;99.90
14357;DHT22;7262;48.764;9.166;2023-02-28T04:15:15;-0.50;99.90
14357;DHT22;7262;48.764;9.166;2023-02-28T04:17:42;-0.50;99.90
14357;DHT22;7262;48.764;9.166;2023-02-28T04:20:09;-0.60;99.90
14357;DHT22;7262;48.764;9.166;2023-02-28T04:22:36;-0.50;99.90
14357;DHT22;7262;48.764;9.166;2023-02-28T04:25:04;-0.50;99.90
14357;DHT22;7262;48.764;9.166;2023-02-28T04:27:33;-0.50;99.90
14357;DHT22;7262;48.764;9.166;2023-02-28T04:30:00;-0.40;99.90
14357;DHT22;7262;48.764;9.166;2023-02-28T04:32:27;-0.40;99.90
14357;DHT22;7262;48.764;9.166;2023-02-28T04:34:54;-0.50;99.90
14357;DHT22;7262;48.764;9.166;2023-02-28T04:37:20;-0.40;99.90
14357;DHT22;7262;48.764;9.166;2023-02-28T04:39:53;-0.50;99.90
14357;DHT22;7262;48.764;9.166;2023-02-28T04:42:20;-0.50;99.90
14357;DHT22;7262;48.764;9.166;2023-02-28T04:44:48;-0.50;99.90
14357;DHT22;7262;48.764;9.166;2023-02-28T04:47:15;-0.50;99.90
14357;DHT22;7262;48.764;9.166;2023-02-28T04:49:42;-0.50;99.90
14357;DHT22;7262;48.764;9.166;2023-02-28T04:52:08;-0.50;99.90
14357;DHT22;7262;48.764;9.166;2023-02-28T04:54:38;-0.40;99.90
14357;DHT22;7262;48.764;9.166;2023-02-28T04:57:05;-0.40;99.90
14357;DHT22;7262;48.764;9.166;2023-02-28T04:59:33;-0.30;99.90
14357;DHT22;7262;48.764;9.166;2023-02-28T05:02:01;-0.40;99.90
14357;DHT22;7262;48.764;9.166;2023-02-28T05:04:32;-0.40;99.90
14357;DHT22;7262;48.764;9.166;2023-02-28T05:06:59;-0.40;99.90
14357;DHT22;7262;48.764;9.166;2023-02-28T05:09:26;-0.40;99.90
14357;DHT22;7262;48.764;9.166;2023-02-28T05:11:52;-0.30;99.90
14357;DHT22;7262;48.764;9.166;2023-02-28T05:14:19;-0.20;99.90
14357;DHT22;7262;48.764;9.166;2023-02-28T05:16:46;-0.30;99.90
14357;DHT22;7262;48.764;9.166;2023-02-28T05:19:14;-0.30;99.90
14357;DHT22;7262;48.764;9.166;2023-02-28T05:21:41;-0.30;99.90
14357;DHT22;7262;48.764;9.166;2023-02-28T05:24:14;-0.20;99.90
14357;DHT22;7262;48.764;9.166;2023-02-28T05:26:46;-0.20;99.90
14357;DHT22;7262;48.764;9.166;2023-02-28T05:29:13;-0.30;99.90
14357;DHT22;7262;48.764;9.166;2023-02-28T05:31:40;-0.30;99.90
14357;DHT22;7262;48.764;9.166;2023-02-28T05:34:09;-0.30;99.90
14357;DHT22;7262;48.764;9.166;2023-02-28T05:36:39;-0.30;99.90
14357;DHT22;7262;48.764;9.166;2023-02-28T05:39:05;-0.20;99.90
14357;DHT22;7262;48.764;9.166;2023-02-28T05:41:32;-0.20;99.90
14357;DHT22;7262;48.764;9.166;2023-02-28T05:43:59;-0.20;99.90
14357;DHT22;7262;48.764;9.166;2023-02-28T05:46:26;-0.20;99.90
14357;DHT22;7262;48.764;9.166;2023-02-28T05:48:53;-0.20;99.90
14357;DHT22;7262;48.764;9.166;2023-02-28T05:51:21;-0.20;99.90
14357;DHT22;7262;48.764;9.166;2023-02-28T05:53:49;-0.20;99.90
14357;DHT22;7262;48.764;9.166;2023-02-28T05:56:16;-0.20;99.90
14357;DHT22;7262;48.764;9.166;2023-02-28T05:58:44;-0.20;99.90
14357;DHT22;7262;48.764;9.166;2023-02-28T06:01:22;-0.30;99.90
14357;DHT22;7262;48.764;9.166;2023-02-28T06:03:49;-0.30;99.90
14357;DHT22;7262;48.764;9.166;2023-02-28T06:06:16;-0.30;99.90
14357;DHT22;7262;48.764;9.166;2023-02-28T06:08:43;-0.20;99.90
14357;DHT22;7262;48.764;9.166;2023-02-28T06:11:12;-0.20;99.90
14357;DHT22;7262;48.764;9.166;2023-02-28T06:13:39;-0.10;99.90
14357;DHT22;7262;48.764;9.166;2023-02-28T06:16:06;-0.10;99.90
14357;DHT22;7262;48.764;9.166;2023-02-28T06:18:34;-0.10;99.90
14357;DHT22;7262;48.764;9.166;2023-02-28T06:21:01;-0.10;99.90
14357;DHT22;7262;48.764;9.166;2023-02-28T06:23:28;-0.10;99.90
14357;DHT22;7262;48.764;9.166;2023-02-28T06:25:55;-0.10;99.90
14357;DHT22;7262;48.764;9.166;2023-02-28T06:28:25;-0.10;99.90
14357;DHT22;7262;48.764;9.166;2023-02-28T06:30:52;-0.10;99.90
14357;DHT22;7262;48.764;9.166;2023-02-28T06:33:19;-0.10;99.90
14357;DHT22;7262;48.764;9.166;2023-02-28T06:35:46;0.00;99.90
14357;DHT22;7262;48.764;9.166;2023-02-28T06:38:14;-0.10;99.90
14357;DHT22;7262;48.764;9.166;2023-02-28T06:40:45;0.00;99.90
14357;DHT22;7262;48.764;9.166;2023-02-28T06:43:18;0.00;99.90
14357;DHT22;7262;48.764;9.166;2023-02-28T06:45:46;0.00;99.90
14357;DHT22;7262;48.764;9.166;2023-02-28T06:48:13;-0.10;99.90
14357;DHT22;7262;48.764;9.166;2023-02-28T06:50:43;0.10;99.90
14357;DHT22;7262;48.764;9.166;2023-02-28T06:53:12;0.10;99.90
14357;DHT22;7262;48.764;9.166;2023-02-28T06:55:41;0.00;99.90
14357;DHT22;7262;48.764;9.166;2023-02-28T06:58:08;0.10;99.90
14357;DHT22;7262;48.764;9.166;2023-02-28T07:00:40;0.10;99.90
14357;DHT22;7262;48.764;9.166;2023-02-28T07:03:09;0.10;99.90
14357;DHT22;7262;48.764;9.166;2023-02-28T07:05:36;0.10;99.90
14357;DHT22;7262;48.764;9.166;2023-02-28T07:08:02;0.20;99.90
14357;DHT22;7262;48.764;9.166;2023-02-28T07:10:30;0.30;99.90
14357;DHT22;7262;48.764;9.166;2023-02-28T07:12:56;0.20;99.90
14357;DHT22;7262;48.764;9.166;2023-02-28T07:15:23;0.30;99.90
14357;DHT22;7262;48.764;9.166;2023-02-28T07:17:52;0.30;99.90
14357;DHT22;7262;48.764;9.166;2023-02-28T07:20:21;0.30;99.90
14357;DHT22;7262;48.764;9.166;2023-02-28T07:22:48;0.40;99.90
14357;DHT22;7262;48.764;9.166;2023-02-28T07:25:20;0.40;99.90
14357;DHT22;7262;48.764;9.166;2023-02-28T07:27:47;0.40;99.90
14357;DHT22;7262;48.764;9.166;2023-02-28T07:30:14;0.50;99.90
14357;DHT22;7262;48.764;9.166;2023-02-28T07:32:40;0.50;99.90
14357;DHT22;7262;48.764;9.166;2023-02-28T07:35:07;0.50;99.90
14357;DHT22;7262;48.764;9.166;2023-02-28T07:37:36;0.70;99.90
14357;DHT22;7262;48.764;9.166;2023-02-28T07:40:03;0.60;99.90
14357;DHT22;7262;48.764;9.166;2023-02-28T07:42:36;0.70;99.90
14357;DHT22;7262;48.764;9.166;2023-02-28T07:45:04;0.70;99.90
14357;DHT22;7262;48.764;9.166;2023-02-28T07:47:34;0.80;99.90
14357;DHT22;7262;48.764;9.166;2023-02-28T07:50:01;0.90;99.90
14357;DHT22;7262;48.764;9.166;2023-02-28T07:57:54;0.80;99.90
14357;DHT22;7262;48.764;9.166;2023-02-28T08:00:22;0.80;99.90
14357;DHT22;7262;48.764;9.166;2023-02-28T08:02:48;0.70;99.90
14357;DHT22;7262;48.764;9.166;2023-02-28T08:05:16;0.90;99.90
14357;DHT22;7262;48.764;9.166;2023-02-28T08:07:42;0.90;99.90
14357;DHT22;7262;48.764;9.166;2023-02-28T08:10:10;0.90;99.90
14357;DHT22;7262;48.764;9.166;2023-02-28T08:12:36;0.90;99.90
14357;DHT22;7262;48.764;9.166;2023-02-28T08:15:05;0.80;99.90
14357;DHT22;7262;48.764;9.166;2023-02-28T08:17:32;0.90;99.90
14357;DHT22;7262;48.764;9.166;2023-02-28T08:19:59;0.90;99.90
14357;DHT22;7262;48.764;9.166;2023-02-28T08:22:26;1.10;99.90
14357;DHT22;7262;48.764;9.166;2023-02-28T08:24:53;1.00;99.90
14357;DHT22;7262;48.764;9.166;2023-02-28T08:27:21;1.10;99.90
14357;DHT22;7262;48.764;9.166;2023-02-28T08:29:48;1.00;99.90
14357;DHT22;7262;48.764;9.166;2023-02-28T08:32:16;1.00;99.90
14357;DHT22;7262;48.764;9.166;2023-02-28T08:34:42;1.10;99.90
14357;DHT22;7262;48.764;9.166;2023-02-28T08:37:09;1.00;99.90
14357;DHT22;7262;48.764;9.166;2023-02-28T08:39:36;1.10;99.90
14357;DHT22;7262;48.764;9.166;2023-02-28T08:42:04;0.90;99.90
14357;DHT22;7262;48.764;9.166;2023-02-28T08:44:31;0.90;99.90
14357;DHT22;7262;48.764;9.166;2023-02-28T08:46:57;1.10;99.90
14357;DHT22;7262;48.764;9.166;2023-02-28T09:02:43;1.20;99.90
14357;DHT22;7262;48.764;9.166;2023-02-28T09:05:10;1.30;99.90
14357;DHT22;7262;48.764;9.166;2023-02-28T09:07:37;1.30;99.90
14357;DHT22;7262;48.764;9.166;2023-02-28T09:10:03;1.30;99.90
14357;DHT22;7262;48.764;9.166;2023-02-28T09:12:32;1.20;99.90
14357;DHT22;7262;48.764;9.166;2023-02-28T09:14:59;1.20;99.90
14357;DHT22;7262;48.764;9.166;2023-02-28T09:17:26;1.20;99.90
14357;DHT22;7262;48.764;9.166;2023-02-28T09:19:54;1.40;99.90
14357;DHT22;7262;48.764;9.166;2023-02-28T09:32:38;1.70;99.90
14357;DHT22;7262;48.764;9.166;2023-02-28T10:06:13;2.00;99.90
14357;DHT22;7262;48.764;9.166;2023-02-28T10:08:42;2.20;99.90
14357;DHT22;7262;48.764;9.166;2023-02-28T10:11:12;2.20;99.90
14357;DHT22;7262;48.764;9.166;2023-02-28T10:13:45;2.30;99.90
14357;DHT22;7262;48.764;9.166;2023-02-28T10:16:13;2.40;99.90
14357;DHT22;7262;48.764;9.166;2023-02-28T10:18:41;2.30;99.90
14357;DHT22;7262;48.764;9.166;2023-02-28T10:21:15;2.20;99.90
14357;DHT22;7262;48.764;9.166;2023-02-28T10:23:45;2.30;99.90
14357;DHT22;7262;48.764;9.166;2023-02-28T10:26:13;2.30;99.90
14357;DHT22;7262;48.764;9.166;2023-02-28T10:28:41;2.60;99.90
14357;DHT22;7262;48.764;9.166;2023-02-28T10:31:08;2.50;99.90
14357;DHT22;7262;48.764;9.166;2023-02-28T10:33:38;2.50;99.90
14357;DHT22;7262;48.764;9.166;2023-02-28T10:36:05;2.50;99.90
14357;DHT22;7262;48.764;9.166;2023-02-28T10:38:36;2.50;99.90
14357;DHT22;7262;48.764;9.166;2023-02-28T10:41:03;2.90;99.90
14357;DHT22;7262;48.764;9.166;2023-02-28T10:43:30;2.80;99.90
14357;DHT22;7262;48.764;9.166;2023-02-28T10:45:58;2.90;99.90
14357;DHT22;7262;48.764;9.166;2023-02-28T10:48:30;3.00;99.90
14357;DHT22;7262;48.764;9.166;2023-02-28T10:50:57;3.10;99.90
14357;DHT22;7262;48.764;9.166;2023-02-28T10:53:28;3.40;99.90
14357;DHT22;7262;48.764;9.166;2023-02-28T10:56:02;3.60;99.90
14357;DHT22;7262;48.764;9.166;2023-02-28T10:58:30;3.80;99.90
14357;DHT22;7262;48.764;9.166;2023-02-28T11:00:57;3.80;99.90
14357;DHT22;7262;48.764;9.166;2023-02-28T11:03:31;3.80;99.90
14357;DHT22;7262;48.764;9.166;2023-02-28T11:06:05;3.90;99.90
14357;DHT22;7262;48.764;9.166;2023-02-28T11:08:33;3.80;99.90
14357;DHT22;7262;48.764;9.166;2023-02-28T11:11:03;3.80;99.90
14357;DHT22;7262;48.764;9.166;2023-02-28T11:13:32;3.60;99.90
14357;DHT22;7262;48.764;9.166;2023-02-28T11:16:00;3.50;99.90
14357;DHT22;7262;48.764;9.166;2023-02-28T11:18:29;3.60;99.90
14357;DHT22;7262;48.764;9.166;2023-02-28T11:20:57;3.70;99.90
14357;DHT22;7262;48.764;9.166;2023-02-28T11:23:25;3.60;99.90
14357;DHT22;7262;48.764;9.166;2023-02-28T11:25:54;4.40;99.90
14357;DHT22;7262;48.764;9.166;2023-02-28T11:28:25;5.70;99.90
14357;DHT22;7262;48.764;9.166;2023-02-28T11:30:59;7.10;99.90
14357;DHT22;7262;48.764;9.166;2023-02-28T12:20:08;9.70;99.90
14357;DHT22;7262;48.764;9.166;2023-02-28T12:22:43;10.30;99.90
14357;DHT22;7262;48.764;9.166;2023-02-28T12:27:57;10.30;99.90
14357;DHT22;7262;48.764;9.166;2023-02-28T12:30:25;8.90;99.90
14357;DHT22;7262;48.764;9.166;2023-02-28T12:32:54;8.60;99.90
14357;DHT22;7262;48.764;9.166;2023-02-28T12:35:26;8.90;99.90
14357;DHT22;7262;48.764;9.166;2023-02-28T12:37:56;9.10;99.90
14357;DHT22;7262;48.764;9.166;2023-02-28T12:40:25;9.40;99.90
14357;DHT22;7262;48.764;9.166;2023-02-28T12:42:54;9.00;99.90
14357;DHT22;7262;48.764;9.166;2023-02-28T12:45:23;8.60;99.90
14357;DHT22;7262;48.764;9.166;2023-02-28T12:47:50;8.60;99.90
14357;DHT22;7262;48.764;9.166;2023-02-28T12:50:19;9.30;99.90
14357;DHT22;7262;48.764;9.166;2023-02-28T12:52:51;10.10;99.90
14357;DHT22;7262;48.764;9.166;2023-02-28T12:55:21;10.90;99.90
14357;DHT22;7262;48.764;9.166;2023-02-28T12:57:54;11.50;99.90
14357;DHT22;7262;48.764;9.166;2023-02-28T13:00:25;11.30;99.90
14357;DHT22;7262;48.764;9.166;2023-02-28T16:19:47;6.20;99.90
14357;DHT22;7262;48.764;9.166;2023-02-28T16:22:14;6.00;99.90
14357;DHT22;7262;48.764;9.166;2023-02-28T16:24:41;5.90;99.90
14357;DHT22;7262;48.764;9.166;2023-02-28T16:27:09;5.80;99.90
14357;DHT22;7262;48.764;9.166;2023-02-28T16:29:41;5.70;99.90
14357;DHT22;7262;48.764;9.166;2023-02-28T16:59:24;4.90;99.90
14357;DHT22;7262;48.764;9.166;2023-02-28T17:12:14;4.70;99.90
14357;DHT22;7262;48.764;9.166;2023-02-28T17:14:44;4.60;99.90
14357;DHT22;7262;48.764;9.166;2023-02-28T17:17:13;4.60;99.90
14357;DHT22;7262;48.764;9.166;2023-02-28T17:19:42;4.60;99.90
14357;DHT22;7262;48.764;9.166;2023-02-28T17:22:09;4.40;99.90
14357;DHT22;7262;48.764;9.166;2023-02-28T17:24:35;4.40;99.90
14357;DHT22;7262;48.764;9.166;2023-02-28T17:27:02;4.30;99.90
14357;DHT22;7262;48.764;9.166;2023-02-28T17:32:09;4.20;99.90
14357;DHT22;7262;48.764;9.166;2023-02-28T17:34:38;4.20;99.90
14357;DHT22;7262;48.764;9.166;2023-02-28T17:37:04;4.00;99.90
14357;DHT22;7262;48.764;9.166;2023-02-28T17:39:31;4.00;99.90
14357;DHT22;7262;48.764;9.166;2023-02-28T17:41:58;3.90;99.90
14357;DHT22;7262;48.764;9.166;2023-02-28T17:44:25;3.90;99.90
14357;DHT22;7262;48.764;9.166;2023-02-28T17:46:51;3.90;99.90
14357;DHT22;7262;48.764;9.166;2023-02-28T17:49:21;3.90;99.90
14357;DHT22;7262;48.764;9.166;2023-02-28T17:51:48;3.90;99.90
14357;DHT22;7262;48.764;9.166;2023-02-28T17:54:16;3.90;99.90
14357;DHT22;7262;48.764;9.166;2023-02-28T17:56:43;3.90;99.90
14357;DHT22;7262;48.764;9.166;2023-02-28T17:59:10;3.80;99.90
14357;DHT22;7262;48.764;9.166;2023-02-28T18:01:37;3.80;99.90
14357;DHT22;7262;48.764;9.166;2023-02-28T18:04:04;3.70;99.90
14357;DHT22;7262;48.764;9.166;2023-02-28T18:09:10;3.70;99.90
14357;DHT22;7262;48.764;9.166;2023-02-28T18:51:46;3.20;99.90
14357;DHT22;7262;48.764;9.166;2023-02-28T18:54:13;2.90;99.90
14357;DHT22;7262;48.764;9.166;2023-02-28T18:56:40;3.10;99.90
14357;DHT22;7262;48.764;9.166;2023-02-28T18:59:07;2.90;99.90
14357;DHT22;7262;48.764;9.166;2023-02-28T19:25:08;2.50;99.90
14357;DHT22;7262;48.764;9.166;2023-02-28T19:27:37;2.40;99.90
14357;DHT22;7262;48.764;9.166;2023-02-28T19:30:07;2.20;99.90
14357;DHT22;7262;48.764;9.166;2023-02-28T19:32:35;2.20;99.90
14357;DHT22;7262;48.764;9.166;2023-02-28T19:35:02;2.10;99.90
14357;DHT22;7262;48.764;9.166;2023-02-28T19:37:29;2.10;99.90
14357;DHT22;7262;48.764;9.166;2023-02-28T22:54:53;-0.20;99.90
